sensor_id;sensor_type;location;lat;lon;timestamp;temperature;humidity
72919;SHT30;68407;55.694;26.994;2023-05-07T00:02:11;0.2;78.8
72919;SHT30;68407;55.694;26.994;2023-05-07T00:07:01;0.1;79.2
72919;SHT30;68407;55.694;26.994;2023-05-07T00:12:01;0.1;79.7
72919;SHT30;68407;55.694;26.994;2023-05-07T00:16:23;0;79.8
72919;SHT30;68407;55.694;26.994;2023-05-07T00:22:11;0;80
72919;SHT30;68407;55.694;26.994;2023-05-07T00:26:31;0.1;80
72919;SHT30;68407;55.694;26.994;2023-05-07T00:31:55;0;79.8
72919;SHT30;68407;55.694;26.994;2023-05-07T00:37:07;-0.1;79.9
72919;SHT30;68407;55.694;26.994;2023-05-07T00:41:43;-0.1;80.3
72919;SHT30;68407;55.694;26.994;2023-05-07T00:46:41;0;79.8
72919;SHT30;68407;55.694;26.994;2023-05-07T00:51:47;0;79.5
72919;SHT30;68407;55.694;26.994;2023-05-07T00:56:39;-0.1;79.8
72919;SHT30;68407;55.694;26.994;2023-05-07T01:01:59;-0.1;80.1
72919;SHT30;68407;55.694;26.994;2023-05-07T01:06:47;-0.2;80.1
72919;SHT30;68407;55.694;26.994;2023-05-07T01:11:47;-0.2;79.9
72919;SHT30;68407;55.694;26.994;2023-05-07T01:16:52;-0.2;80.1
72919;SHT30;68407;55.694;26.994;2023-05-07T01:22:09;-0.3;80
72919;SHT30;68407;55.694;26.994;2023-05-07T01:26:51;-0.4;80.2
72919;SHT30;68407;55.694;26.994;2023-05-07T01:31:41;-0.3;80.1
72919;SHT30;68407;55.694;26.994;2023-05-07T01:36:21;-0.3;80
72919;SHT30;68407;55.694;26.994;2023-05-07T01:42:07;-0.3;80.3
72919;SHT30;68407;55.694;26.994;2023-05-07T01:46:43;-0.5;80.3
72919;SHT30;68407;55.694;26.994;2023-05-07T01:51:21;-0.5;80.2
72919;SHT30;68407;55.694;26.994;2023-05-07T01:57:07;-0.6;80.3
72919;SHT30;68407;55.694;26.994;2023-05-07T02:01:21;-0.6;80.3
72919;SHT30;68407;55.694;26.994;2023-05-07T02:06:21;-0.6;80.8
72919;SHT30;68407;55.694;26.994;2023-05-07T02:11:27;-0.6;80.7
72919;SHT30;68407;55.694;26.994;2023-05-07T02:17:07;-0.6;80.8
72919;SHT30;68407;55.694;26.994;2023-05-07T02:21:59;-0.6;81
72919;SHT30;68407;55.694;26.994;2023-05-07T02:27:07;-0.5;81.2
72919;SHT30;68407;55.694;26.994;2023-05-07T02:32:07;-0.5;81.3
72919;SHT30;68407;55.694;26.994;2023-05-07T02:36:33;-0.3;81.1
72919;SHT30;68407;55.694;26.994;2023-05-07T02:41:21;-0.2;80.8
72919;SHT30;68407;55.694;26.994;2023-05-07T02:47:07;-0.3;80.7
72919;SHT30;68407;55.694;26.994;2023-05-07T02:51:43;-0.3;80.8
72919;SHT30;68407;55.694;26.994;2023-05-07T02:57:09;-0.2;81.1
72919;SHT30;68407;55.694;26.994;2023-05-07T03:01:33;0;81.2
72919;SHT30;68407;55.694;26.994;2023-05-07T03:07:07;0.1;81.1
72919;SHT30;68407;55.694;26.994;2023-05-07T03:11:59;0.3;80.8
72919;SHT30;68407;55.694;26.994;2023-05-07T03:16:21;0.4;80.7
72919;SHT30;68407;55.694;26.994;2023-05-07T03:21:43;0.6;80.5
72919;SHT30;68407;55.694;26.994;2023-05-07T03:27:07;0.7;80.6
72919;SHT30;68407;55.694;26.994;2023-05-07T03:31:21;1;80.3
72919;SHT30;68407;55.694;26.994;2023-05-07T03:36:55;1.1;80.3
72919;SHT30;68407;55.694;26.994;2023-05-07T03:42:07;1.4;80.4
72919;SHT30;68407;55.694;26.994;2023-05-07T03:46:51;1.6;80.1
72919;SHT30;68407;55.694;26.994;2023-05-07T03:51:21;1.9;80.2
72919;SHT30;68407;55.694;26.994;2023-05-07T03:56:47;2.3;79.9
72919;SHT30;68407;55.694;26.994;2023-05-07T04:01:39;2.8;78.9
72919;SHT30;68407;55.694;26.994;2023-05-07T04:06:59;3.1;77.8
72919;SHT30;68407;55.694;26.994;2023-05-07T04:11:21;3.6;76.6
72919;SHT30;68407;55.694;26.994;2023-05-07T04:16:39;4;75.9
72919;SHT30;68407;55.694;26.994;2023-05-07T04:21:51;4.3;75.3
72919;SHT30;68407;55.694;26.994;2023-05-07T04:27:07;4.6;73.8
72919;SHT30;68407;55.694;26.994;2023-05-07T04:31:21;5;71
72919;SHT30;68407;55.694;26.994;2023-05-07T04:36:21;5.4;66.2
72919;SHT30;68407;55.694;26.994;2023-05-07T04:41:35;5.7;64.7
72919;SHT30;68407;55.694;26.994;2023-05-07T04:47:07;6.1;63.6
72919;SHT30;68407;55.694;26.994;2023-05-07T04:51:59;6.3;62.5
72919;SHT30;68407;55.694;26.994;2023-05-07T04:56:21;6.5;62.6
72919;SHT30;68407;55.694;26.994;2023-05-07T05:02:07;6.8;60.3
72919;SHT30;68407;55.694;26.994;2023-05-07T05:06:47;7.2;58.6
72919;SHT30;68407;55.694;26.994;2023-05-07T05:11:33;7.5;57.8
72919;SHT30;68407;55.694;26.994;2023-05-07T05:16:39;7.6;57.3
72919;SHT30;68407;55.694;26.994;2023-05-07T05:22:07;8;57.3
72919;SHT30;68407;55.694;26.994;2023-05-07T05:26:21;8.2;55.8
72919;SHT30;68407;55.694;26.994;2023-05-07T05:32:07;8.4;55.3
72919;SHT30;68407;55.694;26.994;2023-05-07T05:37:07;8.6;54.3
72919;SHT30;68407;55.694;26.994;2023-05-07T05:41:31;8.9;52.8
72919;SHT30;68407;55.694;26.994;2023-05-07T05:46:43;9;51.5
72919;SHT30;68407;55.694;26.994;2023-05-07T05:51:55;9.1;51.4
72919;SHT30;68407;55.694;26.994;2023-05-07T05:56:39;9.4;49.7
72919;SHT30;68407;55.694;26.994;2023-05-07T06:01:59;9.3;50.1
72919;SHT30;68407;55.694;26.994;2023-05-07T06:06:49;9.1;50.5
72919;SHT30;68407;55.694;26.994;2023-05-07T06:12:09;9.1;50.3
72919;SHT30;68407;55.694;26.994;2023-05-07T06:16:53;9.3;50.2
72919;SHT30;68407;55.694;26.994;2023-05-07T06:21:23;9.5;50.3
72919;SHT30;68407;55.694;26.994;2023-05-07T06:26:23;9.5;48.9
72919;SHT30;68407;55.694;26.994;2023-05-07T06:32:10;9.6;48
72919;SHT30;68407;55.694;26.994;2023-05-07T06:36:35;9.4;47.7
72919;SHT30;68407;55.694;26.994;2023-05-07T06:42:09;9.4;47.7
72919;SHT30;68407;55.694;26.994;2023-05-07T06:46:57;9.4;46.8
72919;SHT30;68407;55.694;26.994;2023-05-07T06:51:37;9.5;46.2
72919;SHT30;68407;55.694;26.994;2023-05-07T06:56:37;9.6;46
72919;SHT30;68407;55.694;26.994;2023-05-07T07:01:51;9.6;44.1
72919;SHT30;68407;55.694;26.994;2023-05-07T07:06:43;9.6;44.1
72919;SHT30;68407;55.694;26.994;2023-05-07T07:12:01;9.6;43
72919;SHT30;68407;55.694;26.994;2023-05-07T07:16:51;10.2;43.1
72919;SHT30;68407;55.694;26.994;2023-05-07T07:21:25;9.9;43.2
72919;SHT30;68407;55.694;26.994;2023-05-07T07:27:11;9.5;43.6
72919;SHT30;68407;55.694;26.994;2023-05-07T07:32:11;9.5;43.3
72919;SHT30;68407;55.694;26.994;2023-05-07T07:36:31;10;43.6
72919;SHT30;68407;55.694;26.994;2023-05-07T07:41:25;10.5;43.3
72919;SHT30;68407;55.694;26.994;2023-05-07T07:46:25;10.4;41.7
72919;SHT30;68407;55.694;26.994;2023-05-07T07:52:11;10.5;43.3
72919;SHT30;68407;55.694;26.994;2023-05-07T07:56:45;11.1;41.6
72919;SHT30;68407;55.694;26.994;2023-05-07T08:01:35;11;42.8
72919;SHT30;68407;55.694;26.994;2023-05-07T08:06:57;11.2;41.8
72919;SHT30;68407;55.694;26.994;2023-05-07T08:11:37;11.2;40.8
72919;SHT30;68407;55.694;26.994;2023-05-07T08:16:43;11.3;39.9
72919;SHT30;68407;55.694;26.994;2023-05-07T08:21:43;10.3;40.1
72919;SHT30;68407;55.694;26.994;2023-05-07T08:27:07;10.5;40.1
72919;SHT30;68407;55.694;26.994;2023-05-07T08:31:25;10.9;40.8
72919;SHT30;68407;55.694;26.994;2023-05-07T08:37:11;11.6;42
72919;SHT30;68407;55.694;26.994;2023-05-07T08:42:11;12.2;40.8
72919;SHT30;68407;55.694;26.994;2023-05-07T08:46:25;12.5;39.4
72919;SHT30;68407;55.694;26.994;2023-05-07T08:51:25;12.7;39.8
72919;SHT30;68407;55.694;26.994;2023-05-07T08:56:59;13;38.2
72919;SHT30;68407;55.694;26.994;2023-05-07T09:01:54;13;37.8
72919;SHT30;68407;55.694;26.994;2023-05-07T09:07:03;12.5;38.6
72919;SHT30;68407;55.694;26.994;2023-05-07T09:11:56;11.9;37.7
72919;SHT30;68407;55.694;26.994;2023-05-07T09:17:09;11.6;38.4
72919;SHT30;68407;55.694;26.994;2023-05-07T09:22:01;12.2;38.2
72919;SHT30;68407;55.694;26.994;2023-05-07T09:26:40;12.4;39.9
72919;SHT30;68407;55.694;26.994;2023-05-07T09:31:38;12.2;39.9
72919;SHT30;68407;55.694;26.994;2023-05-07T09:37:10;12.7;38.2
72919;SHT30;68407;55.694;26.994;2023-05-07T09:41:23;13;38
72919;SHT30;68407;55.694;26.994;2023-05-07T09:47:00;13.3;35.8
72919;SHT30;68407;55.694;26.994;2023-05-07T09:52:00;12.6;37
72919;SHT30;68407;55.694;26.994;2023-05-07T09:56:26;13;37.5
72919;SHT30;68407;55.694;26.994;2023-05-07T10:01:55;12.9;37.2
72919;SHT30;68407;55.694;26.994;2023-05-07T10:06:25;13;37.4
72919;SHT30;68407;55.694;26.994;2023-05-07T10:11:26;13.2;37
72919;SHT30;68407;55.694;26.994;2023-05-07T10:17:02;13;36.4
72919;SHT30;68407;55.694;26.994;2023-05-07T10:22:04;12.9;35.9
72919;SHT30;68407;55.694;26.994;2023-05-07T10:26:38;13.1;36.1
72919;SHT30;68407;55.694;26.994;2023-05-07T10:31:55;13.4;35.6
72919;SHT30;68407;55.694;26.994;2023-05-07T10:37:04;13.1;35.4
72919;SHT30;68407;55.694;26.994;2023-05-07T10:42:12;13.3;36
72919;SHT30;68407;55.694;26.994;2023-05-07T10:46:23;13.6;35.4
72919;SHT30;68407;55.694;26.994;2023-05-07T10:52:15;13.5;35.9
72919;SHT30;68407;55.694;26.994;2023-05-07T10:57:43;14.2;35.8
72919;SHT30;68407;55.694;26.994;2023-05-07T11:01:53;14.3;35.1
72919;SHT30;68407;55.694;26.994;2023-05-07T11:06:32;14.8;33.9
72919;SHT30;68407;55.694;26.994;2023-05-07T11:12:12;14.7;34.3
72919;SHT30;68407;55.694;26.994;2023-05-07T11:17:04;14.7;33.8
72919;SHT30;68407;55.694;26.994;2023-05-07T11:21:31;14.9;34.6
72919;SHT30;68407;55.694;26.994;2023-05-07T11:26:45;15.1;33.9
72919;SHT30;68407;55.694;26.994;2023-05-07T11:32:12;15.3;32.7
72919;SHT30;68407;55.694;26.994;2023-05-07T11:36:41;15.2;33.3
72919;SHT30;68407;55.694;26.994;2023-05-07T11:42:00;15;33
72919;SHT30;68407;55.694;26.994;2023-05-07T11:47:16;14.9;35.9
72919;SHT30;68407;55.694;26.994;2023-05-07T11:51:26;15.4;34.1
72919;SHT30;68407;55.694;26.994;2023-05-07T11:56:26;15.3;34.3
72919;SHT30;68407;55.694;26.994;2023-05-07T12:01:38;15.6;34.1
72919;SHT30;68407;55.694;26.994;2023-05-07T12:06:26;16.2;34.2
72919;SHT30;68407;55.694;26.994;2023-05-07T12:12:04;16.1;33.1
72919;SHT30;68407;55.694;26.994;2023-05-07T12:16:52;16;34.5
72919;SHT30;68407;55.694;26.994;2023-05-07T12:21:36;16.4;34.3
72919;SHT30;68407;55.694;26.994;2023-05-07T12:26:58;16.3;31.9
72919;SHT30;68407;55.694;26.994;2023-05-07T12:32:12;16.3;32.9
72919;SHT30;68407;55.694;26.994;2023-05-07T12:36:44;16.4;32.6
72919;SHT30;68407;55.694;26.994;2023-05-07T12:41:36;16.3;33.2
72919;SHT30;68407;55.694;26.994;2023-05-07T12:46:38;16.4;33.6
72919;SHT30;68407;55.694;26.994;2023-05-07T12:52:12;16.6;33.1
72919;SHT30;68407;55.694;26.994;2023-05-07T12:56:46;16.4;31.9
72919;SHT30;68407;55.694;26.994;2023-05-07T13:01:28;16;32.7
72919;SHT30;68407;55.694;26.994;2023-05-07T13:07:12;15.4;32.2
72919;SHT30;68407;55.694;26.994;2023-05-07T13:11:40;14.8;32.7
72919;SHT30;68407;55.694;26.994;2023-05-07T13:16:38;14.8;33.7
72919;SHT30;68407;55.694;26.994;2023-05-07T13:21:44;15.2;34
72919;SHT30;68407;55.694;26.994;2023-05-07T13:27:12;15.7;33.8
72919;SHT30;68407;55.694;26.994;2023-05-07T13:31:38;16;33.7
72919;SHT30;68407;55.694;26.994;2023-05-07T13:37:12;16.3;33.1
72919;SHT30;68407;55.694;26.994;2023-05-07T13:42:00;15.9;32.8
72919;SHT30;68407;55.694;26.994;2023-05-07T13:46:26;15.9;34.5
72919;SHT30;68407;55.694;26.994;2023-05-07T13:51:48;16.2;33.7
72919;SHT30;68407;55.694;26.994;2023-05-07T13:57:00;16.3;32.8
72919;SHT30;68407;55.694;26.994;2023-05-07T14:01:58;16;32.7
72919;SHT30;68407;55.694;26.994;2023-05-07T14:07:04;16.2;33
72919;SHT30;68407;55.694;26.994;2023-05-07T14:11:26;16.6;31.9
72919;SHT30;68407;55.694;26.994;2023-05-07T14:16:58;16.6;31.9
72919;SHT30;68407;55.694;26.994;2023-05-07T14:22:14;16.7;31.9
72919;SHT30;68407;55.694;26.994;2023-05-07T14:26:26;16.6;32.3
72919;SHT30;68407;55.694;26.994;2023-05-07T14:31:38;16.6;31.6
72919;SHT30;68407;55.694;26.994;2023-05-07T14:36:56;16.2;31.9
72919;SHT30;68407;55.694;26.994;2023-05-07T14:41:36;16.3;31.7
72919;SHT30;68407;55.694;26.994;2023-05-07T14:47:00;16.5;31.7
72919;SHT30;68407;55.694;26.994;2023-05-07T14:52:00;16.8;32.2
72919;SHT30;68407;55.694;26.994;2023-05-07T14:56:26;16.6;31
72919;SHT30;68407;55.694;26.994;2023-05-07T15:01:26;16.6;32.1
72919;SHT30;68407;55.694;26.994;2023-05-07T15:06:50;16.7;31.4
72919;SHT30;68407;55.694;26.994;2023-05-07T15:11:36;16.7;31.4
72919;SHT30;68407;55.694;26.994;2023-05-07T15:17:02;16.6;32
72919;SHT30;68407;55.694;26.994;2023-05-07T15:21:48;17.1;31.8
72919;SHT30;68407;55.694;26.994;2023-05-07T15:26:42;16.3;31.8
72919;SHT30;68407;55.694;26.994;2023-05-07T15:31:56;15.4;33.3
72919;SHT30;68407;55.694;26.994;2023-05-07T15:37:10;15.6;34
72919;SHT30;68407;55.694;26.994;2023-05-07T15:41:44;16.1;32.4
72919;SHT30;68407;55.694;26.994;2023-05-07T15:46:26;16.4;33.3
72919;SHT30;68407;55.694;26.994;2023-05-07T15:51:26;15.8;33.4
72919;SHT30;68407;55.694;26.994;2023-05-07T15:57:12;15.3;33.7
72919;SHT30;68407;55.694;26.994;2023-05-07T16:01:48;15;34
72919;SHT30;68407;55.694;26.994;2023-05-07T16:07:00;15.2;33.4
72919;SHT30;68407;55.694;26.994;2023-05-07T16:12:12;14.8;34.5
72919;SHT30;68407;55.694;26.994;2023-05-07T16:16:26;14.7;34.8
72919;SHT30;68407;55.694;26.994;2023-05-07T16:21:36;15.2;34.7
72919;SHT30;68407;55.694;26.994;2023-05-07T16:26:44;15.5;33.5
72919;SHT30;68407;55.694;26.994;2023-05-07T16:32:12;15;33.7
72919;SHT30;68407;55.694;26.994;2023-05-07T16:36:50;15.1;34.6
72919;SHT30;68407;55.694;26.994;2023-05-07T16:42:12;15;33.9
72919;SHT30;68407;55.694;26.994;2023-05-07T16:47:12;14.7;34.2
72919;SHT30;68407;55.694;26.994;2023-05-07T16:51:26;15;34.3
72919;SHT30;68407;55.694;26.994;2023-05-07T16:56:38;14.9;36.4
72919;SHT30;68407;55.694;26.994;2023-05-07T17:02:02;15.1;36.6
72919;SHT30;68407;55.694;26.994;2023-05-07T17:06:58;15.2;36.8
72919;SHT30;68407;55.694;26.994;2023-05-07T17:11:38;15.3;37.4
72919;SHT30;68407;55.694;26.994;2023-05-07T17:16:40;15.4;36.5
72919;SHT30;68407;55.694;26.994;2023-05-07T17:22:14;15.3;37.5
72919;SHT30;68407;55.694;26.994;2023-05-07T17:26:56;15;37.6
72919;SHT30;68407;55.694;26.994;2023-05-07T17:31:36;14.4;37.8
72919;SHT30;68407;55.694;26.994;2023-05-07T17:36:44;13.8;38.7
72919;SHT30;68407;55.694;26.994;2023-05-07T17:42:12;13;40.1
72919;SHT30;68407;55.694;26.994;2023-05-07T17:46:38;12.5;41.1
72919;SHT30;68407;55.694;26.994;2023-05-07T17:52:12;12.2;42.1
72919;SHT30;68407;55.694;26.994;2023-05-07T17:57:00;11.8;44.8
72919;SHT30;68407;55.694;26.994;2023-05-07T18:01:36;11.3;47.1
72919;SHT30;68407;55.694;26.994;2023-05-07T18:06:56;10.6;49.2
72919;SHT30;68407;55.694;26.994;2023-05-07T18:11:38;9.8;52.1
72919;SHT30;68407;55.694;26.994;2023-05-07T18:16:44;9.4;52.9
72919;SHT30;68407;55.694;26.994;2023-05-07T18:21:52;9.1;53.6
72919;SHT30;68407;55.694;26.994;2023-05-07T18:27:12;8.5;56.3
72919;SHT30;68407;55.694;26.994;2023-05-07T18:31:52;8.2;58.2
72919;SHT30;68407;55.694;26.994;2023-05-07T18:36:46;7.9;59.2
72919;SHT30;68407;55.694;26.994;2023-05-07T18:41:54;7.6;59.8
72919;SHT30;68407;55.694;26.994;2023-05-07T18:47:00;7.4;60
72919;SHT30;68407;55.694;26.994;2023-05-07T18:51:48;7.1;61
72919;SHT30;68407;55.694;26.994;2023-05-07T18:56:58;6.8;63
72919;SHT30;68407;55.694;26.994;2023-05-07T19:02:14;6.6;64.1
72919;SHT30;68407;55.694;26.994;2023-05-07T19:07:14;6.5;64
72919;SHT30;68407;55.694;26.994;2023-05-07T19:11:26;6.3;63.5
72919;SHT30;68407;55.694;26.994;2023-05-07T19:17:14;6.1;63.7
72919;SHT30;68407;55.694;26.994;2023-05-07T19:21:52;5.9;65.3
72919;SHT30;68407;55.694;26.994;2023-05-07T19:26:34;5.7;66.1
72919;SHT30;68407;55.694;26.994;2023-05-07T19:31:44;5.7;66
72919;SHT30;68407;55.694;26.994;2023-05-07T19:37:12;5.5;65.2
72919;SHT30;68407;55.694;26.994;2023-05-07T19:41:40;5.5;64.9
72919;SHT30;68407;55.694;26.994;2023-05-07T19:47:12;5.3;66.9
72919;SHT30;68407;55.694;26.994;2023-05-07T19:52:12;5.1;66.2
72919;SHT30;68407;55.694;26.994;2023-05-07T19:56:36;4.8;68.1
72919;SHT30;68407;55.694;26.994;2023-05-07T20:01:48;4.7;68.9
72919;SHT30;68407;55.694;26.994;2023-05-07T20:07:00;4.7;68.8
72919;SHT30;68407;55.694;26.994;2023-05-07T20:11:56;4.7;68.8
72919;SHT30;68407;55.694;26.994;2023-05-07T20:17:04;4.7;69
72919;SHT30;68407;55.694;26.994;2023-05-07T20:21:52;4.4;69.2
72919;SHT30;68407;55.694;26.994;2023-05-07T20:27:10;4.4;69.5
72919;SHT30;68407;55.694;26.994;2023-05-07T20:31:34;4.2;69.8
72919;SHT30;68407;55.694;26.994;2023-05-07T20:37:12;4.1;69.9
72919;SHT30;68407;55.694;26.994;2023-05-07T20:41:26;3.9;69.9
72919;SHT30;68407;55.694;26.994;2023-05-07T20:47:12;3.9;70.4
72919;SHT30;68407;55.694;26.994;2023-05-07T20:51:26;3.9;70.9
72919;SHT30;68407;55.694;26.994;2023-05-07T20:57:00;3.8;71
72919;SHT30;68407;55.694;26.994;2023-05-07T21:02:00;3.8;71.8
72919;SHT30;68407;55.694;26.994;2023-05-07T21:06:48;3.8;72
72919;SHT30;68407;55.694;26.994;2023-05-07T21:11:56;3.8;71.2
72919;SHT30;68407;55.694;26.994;2023-05-07T21:16:52;3.8;71.1
72919;SHT30;68407;55.694;26.994;2023-05-07T21:21:26;3.7;71.6
72919;SHT30;68407;55.694;26.994;2023-05-07T21:27:12;3.5;72.8
72919;SHT30;68407;55.694;26.994;2023-05-07T21:32:04;3.4;73
72919;SHT30;68407;55.694;26.994;2023-05-07T21:36:38;3.2;74.2
72919;SHT30;68407;55.694;26.994;2023-05-07T21:41:56;3.1;74.7
72919;SHT30;68407;55.694;26.994;2023-05-07T21:47:04;3.1;75.2
72919;SHT30;68407;55.694;26.994;2023-05-07T21:51:58;3.3;74.8
72919;SHT30;68407;55.694;26.994;2023-05-07T21:56:26;3.1;74.6
72919;SHT30;68407;55.694;26.994;2023-05-07T22:02:00;3;75.2
72919;SHT30;68407;55.694;26.994;2023-05-07T22:07:10;2.9;75.8
72919;SHT30;68407;55.694;26.994;2023-05-07T22:12:12;2.9;75.9
72919;SHT30;68407;55.694;26.994;2023-05-07T22:16:42;2.7;76.1
72919;SHT30;68407;55.694;26.994;2023-05-07T22:22:10;2.9;76
72919;SHT30;68407;55.694;26.994;2023-05-07T22:27:04;2.9;75.9
72919;SHT30;68407;55.694;26.994;2023-05-07T22:31:38;2.9;75.3
72919;SHT30;68407;55.694;26.994;2023-05-07T22:36:32;2.8;74.8
72919;SHT30;68407;55.694;26.994;2023-05-07T22:42:10;2.7;75.2
72919;SHT30;68407;55.694;26.994;2023-05-07T22:46:26;2.7;75.4
72919;SHT30;68407;55.694;26.994;2023-05-07T22:52:12;2.5;75.1
72919;SHT30;68407;55.694;26.994;2023-05-07T22:57:12;2.4;75.8
72919;SHT30;68407;55.694;26.994;2023-05-07T23:01:38;2.4;75.8
72919;SHT30;68407;55.694;26.994;2023-05-07T23:06:48;2.6;75.2
72919;SHT30;68407;55.694;26.994;2023-05-07T23:11:52;2.4;75.6
72919;SHT30;68407;55.694;26.994;2023-05-07T23:16:26;2.3;76.1
72919;SHT30;68407;55.694;26.994;2023-05-07T23:22:04;2.4;76.3
72919;SHT30;68407;55.694;26.994;2023-05-07T23:26:52;2.6;75.4
72919;SHT30;68407;55.694;26.994;2023-05-07T23:31:44;2.5;75.3
72919;SHT30;68407;55.694;26.994;2023-05-07T23:37:14;2.4;74.9
72919;SHT30;68407;55.694;26.994;2023-05-07T23:41:40;2.2;75.7
72919;SHT30;68407;55.694;26.994;2023-05-07T23:47:02;2.1;75.9
72919;SHT30;68407;55.694;26.994;2023-05-07T23:52:14;1.9;76.6
72919;SHT30;68407;55.694;26.994;2023-05-07T23:56:26;2;76.6
